createdAt,value
2019-04-22T00:02:24.485Z,13.03
2019-04-22T00:05:05.781Z,13.90
2019-04-22T00:07:48.311Z,16.20
2019-04-22T00:10:27.553Z,12.10
2019-04-22T00:12:57.760Z,12.77
2019-04-22T00:15:19.500Z,12.10
2019-04-22T00:18:02.963Z,11.93
2019-04-22T00:20:22.424Z,11.47
2019-04-22T00:22:57.827Z,11.10
2019-04-22T00:28:02.421Z,11.47
2019-04-22T00:30:32.539Z,12.03
2019-04-22T00:33:08.104Z,12.00
2019-04-22T00:35:36.653Z,11.70
2019-04-22T00:38:11.200Z,11.70
2019-04-22T00:40:46.173Z,12.20
2019-04-22T00:43:14.132Z,11.33
2019-04-22T00:45:42.860Z,12.07
2019-04-22T00:48:20.669Z,12.33
2019-04-22T00:51:00.156Z,13.53
2019-04-22T00:53:25.342Z,13.73
2019-04-22T00:56:10.939Z,14.50
2019-04-22T01:01:17.524Z,15.50
2019-04-22T01:03:50.341Z,17.43
2019-04-22T01:06:16.169Z,17.40
2019-04-22T01:08:46.558Z,16.73
2019-04-22T01:11:25.158Z,16.37
2019-04-22T01:13:44.251Z,16.07
2019-04-22T01:16:21.651Z,16.97
2019-04-22T01:18:52.184Z,15.83
2019-04-22T01:23:52.287Z,16.30
2019-04-22T01:26:20.289Z,17.77
2019-04-22T01:28:52.913Z,19.93
2019-04-22T01:31:17.193Z,20.97
2019-04-22T01:33:49.757Z,21.07
2019-04-22T01:36:33.888Z,20.37
2019-04-22T01:39:03.836Z,19.70
2019-04-22T01:41:51.709Z,19.23
2019-04-22T01:44:22.898Z,18.23
2019-04-22T01:46:47.700Z,16.07
2019-04-22T01:49:15.480Z,14.37
2019-04-22T01:54:23.374Z,13.30
2019-04-22T01:56:47.298Z,13.60
2019-04-22T01:59:11.050Z,13.63
2019-04-22T02:01:52.515Z,13.30
2019-04-22T02:04:30.413Z,12.07
2019-04-22T02:14:31.578Z,11.37
2019-04-22T02:16:56.941Z,12.23
2019-04-22T02:19:30.450Z,12.30
2019-04-22T02:21:56.579Z,11.47
2019-04-22T02:24:33.694Z,11.80
2019-04-22T02:27:08.900Z,12.50
2019-04-22T02:29:34.696Z,12.07
2019-04-22T02:32:10.309Z,11.73
2019-04-22T02:34:39.984Z,12.97
2019-04-22T02:37:14.683Z,11.77
2019-04-22T02:39:41.143Z,12.13
2019-04-22T02:42:10.790Z,11.90
2019-04-22T02:44:42.632Z,12.80
2019-04-22T02:47:15.575Z,14.03
2019-04-22T02:50:01.990Z,14.00
2019-04-22T02:52:20.430Z,12.67
2019-04-22T03:04:53.329Z,13.40
2019-04-22T03:07:25.993Z,12.90
2019-04-22T03:09:55.415Z,13.57
2019-04-22T03:12:23.676Z,13.23
2019-04-22T03:15:07.434Z,13.37
2019-04-22T03:17:28.623Z,13.47
2019-04-22T03:20:06.253Z,13.20
2019-04-22T03:27:30.068Z,12.27
2019-04-22T03:30:41.987Z,12.27
2019-04-22T03:40:30.432Z,13.77
2019-04-22T03:42:59.704Z,13.90
2019-04-22T03:47:52.812Z,12.53
2019-04-22T04:03:06.424Z,12.33
2019-04-22T04:08:18.366Z,11.27
2019-04-22T04:10:37.772Z,11.87
2019-04-22T04:13:04.210Z,12.70
2019-04-22T04:15:32.784Z,12.10
2019-04-22T04:17:56.970Z,12.13
2019-04-22T04:23:07.943Z,14.87
2019-04-22T04:30:31.256Z,14.57
2019-04-22T04:33:06.841Z,14.20
2019-04-22T04:37:58.866Z,13.93
2019-04-22T04:40:45.606Z,13.20
2019-04-22T04:45:46.162Z,11.90
2019-04-22T04:48:14.437Z,10.47
2019-04-22T04:50:58.638Z,10.40
2019-04-22T04:53:24.401Z,10.20
2019-04-22T04:55:46.834Z,10.03
2019-04-22T04:58:36.653Z,9.63
2019-04-22T05:03:32.688Z,9.50
2019-04-22T05:08:39.023Z,8.60
2019-04-22T05:13:33.589Z,8.43
2019-04-22T05:16:13.442Z,7.47
2019-04-22T05:18:29.349Z,9.27
2019-04-22T05:21:09.670Z,8.80
2019-04-22T05:23:30.430Z,8.13
2019-04-22T05:25:57.934Z,8.00
2019-04-22T05:28:29.935Z,8.47
2019-04-22T05:31:01.544Z,7.83
2019-04-22T05:33:33.038Z,8.33
2019-04-22T05:36:06.067Z,8.27
2019-04-22T05:38:40.205Z,7.67
2019-04-22T05:41:02.361Z,8.07
2019-04-22T05:43:35.568Z,7.73
2019-04-22T05:46:02.919Z,7.90
2019-04-22T05:48:38.058Z,7.70
2019-04-22T05:51:14.645Z,8.00
2019-04-22T05:53:41.867Z,7.33
2019-04-22T05:56:22.104Z,7.23
2019-04-22T05:58:47.899Z,7.63
2019-04-22T06:03:50.816Z,7.07
2019-04-22T06:08:48.263Z,7.00
2019-04-22T06:11:29.556Z,6.83
2019-04-22T06:13:50.164Z,6.97
2019-04-22T06:16:31.338Z,6.53
2019-04-22T06:19:05.736Z,6.73
2019-04-22T06:21:35.701Z,6.97
2019-04-22T06:24:10.595Z,6.97
2019-04-22T06:26:48.993Z,6.57
2019-04-22T06:29:09.199Z,7.47
2019-04-22T06:31:49.851Z,7.57
2019-04-22T06:34:10.778Z,7.17
2019-04-22T06:36:45.081Z,6.93
2019-04-22T06:39:17.344Z,7.23
2019-04-22T06:46:47.877Z,6.67
2019-04-22T06:49:20.978Z,7.50
2019-04-22T06:51:46.798Z,7.20
2019-04-22T06:54:22.081Z,7.50
2019-04-22T06:56:50.687Z,7.10
2019-04-22T06:59:18.935Z,7.10
2019-04-22T07:01:48.633Z,6.80
2019-04-22T07:04:16.689Z,6.77
2019-04-22T07:06:58.098Z,7.00
2019-04-22T07:11:52.856Z,7.87
2019-04-22T07:14:22.866Z,7.17
2019-04-22T07:16:56.163Z,6.47
2019-04-22T07:19:28.152Z,6.60
2019-04-22T07:21:57.274Z,6.67
2019-04-22T07:24:40.515Z,6.67
2019-04-22T07:27:04.714Z,6.27
2019-04-22T07:29:32.809Z,6.33
2019-04-22T07:32:06.790Z,6.10
2019-04-22T07:34:33.131Z,5.63
2019-04-22T07:37:22.841Z,5.50
2019-04-22T07:39:35.261Z,6.30
2019-04-22T07:42:10.446Z,6.20
2019-04-22T07:44:38.628Z,5.90
2019-04-22T07:47:15.204Z,5.53
2019-04-22T07:52:09.825Z,5.30
2019-04-22T07:54:43.394Z,5.83
2019-04-22T07:57:24.422Z,5.40
2019-04-22T07:59:50.470Z,5.40
2019-04-22T08:02:14.589Z,5.53
2019-04-22T08:05:04.002Z,5.50
2019-04-22T08:07:17.754Z,5.30
2019-04-22T08:12:20.289Z,5.83
2019-04-22T08:14:53.626Z,5.53
2019-04-22T08:17:49.913Z,5.10
2019-04-22T08:19:57.785Z,7.77
2019-04-22T08:22:21.153Z,5.73
2019-04-22T08:24:56.148Z,6.37
2019-04-22T08:27:25.612Z,4.80
2019-04-22T08:32:29.909Z,4.87
2019-04-22T08:35:04.596Z,5.13
2019-04-22T08:37:47.630Z,5.57
2019-04-22T08:40:07.598Z,5.90
2019-04-22T08:42:43.413Z,4.73
2019-04-22T08:45:09.350Z,5.53
2019-04-22T08:47:39.550Z,6.33
2019-04-22T08:50:09.052Z,8.87
2019-04-22T08:52:40.663Z,5.40
2019-04-22T08:55:11.199Z,5.27
2019-04-22T09:00:08.443Z,5.40
2019-04-22T09:02:46.787Z,4.50
2019-04-22T09:05:22.824Z,4.40
2019-04-22T09:07:46.526Z,4.23
2019-04-22T09:10:17.168Z,4.70
2019-04-22T09:12:57.878Z,4.70
2019-04-22T09:15:21.882Z,4.53
2019-04-22T09:20:20.622Z,4.53
2019-04-22T09:22:53.718Z,3.77
2019-04-22T09:25:27.466Z,3.93
2019-04-22T09:28:10.580Z,4.07
2019-04-22T09:30:30.687Z,4.43
2019-04-22T09:33:06.656Z,4.10
2019-04-22T09:35:31.518Z,3.80
2019-04-22T09:38:12.702Z,3.90
2019-04-22T09:40:33.213Z,2.97
2019-04-22T09:43:03.230Z,3.57
2019-04-22T09:45:35.167Z,3.20
2019-04-22T09:48:10.476Z,4.43
2019-04-22T09:50:43.061Z,3.60
2019-04-22T09:53:13.395Z,3.00
2019-04-22T09:55:41.654Z,3.20
2019-04-22T09:58:09.531Z,3.33
2019-04-22T10:01:03.068Z,3.63
2019-04-22T10:03:32.109Z,3.77
2019-04-22T10:06:11.880Z,3.27
2019-04-22T10:08:35.680Z,2.90
2019-04-22T10:11:06.175Z,3.27
2019-04-22T10:13:34.732Z,4.07
2019-04-22T10:16:03.032Z,3.03
2019-04-22T10:18:41.725Z,3.27
2019-04-22T10:21:08.687Z,3.00
2019-04-22T10:23:41.653Z,3.70
2019-04-22T10:26:14.906Z,3.50
2019-04-22T10:28:44.702Z,3.60
2019-04-22T10:31:21.824Z,3.20
2019-04-22T10:33:38.251Z,3.00
2019-04-22T10:35:49.652Z,3.43
2019-04-22T10:38:19.044Z,3.30
2019-04-22T10:40:48.414Z,3.80
2019-04-22T10:43:19.073Z,3.33
2019-04-22T10:45:50.185Z,3.57
2019-04-22T10:48:19.818Z,3.50
2019-04-22T10:50:50.523Z,3.00
2019-04-22T10:53:21.559Z,3.13
2019-04-22T10:55:51.754Z,3.00
2019-04-22T10:58:22.863Z,2.80
2019-04-22T11:00:54.130Z,3.10
2019-04-22T11:03:24.532Z,3.10
2019-04-22T11:05:54.464Z,3.00
2019-04-22T11:08:32.586Z,3.23
2019-04-22T11:11:12.266Z,3.27
2019-04-22T11:13:26.545Z,3.40
2019-04-22T11:15:56.168Z,3.30
2019-04-22T11:18:25.791Z,3.10
2019-04-22T11:20:55.819Z,3.13
2019-04-22T11:23:26.880Z,2.80
2019-04-22T11:25:57.617Z,2.67
2019-04-22T11:28:27.710Z,2.40
2019-04-22T11:30:58.726Z,2.87
2019-04-22T11:33:28.167Z,2.90
2019-04-22T11:35:57.953Z,3.17
2019-04-22T11:38:28.733Z,4.13
2019-04-22T11:41:01.124Z,3.80
2019-04-22T11:43:30.460Z,3.07
2019-04-22T11:46:00.668Z,2.70
2019-04-22T11:48:31.166Z,2.70
2019-04-22T11:51:01.942Z,2.93
2019-04-22T11:53:31.395Z,3.00
2019-04-22T11:56:00.793Z,3.17
2019-04-22T11:58:30.838Z,3.00
2019-04-22T12:01:01.076Z,2.90
2019-04-22T12:03:31.630Z,3.00
2019-04-22T12:06:02.079Z,3.00
2019-04-22T12:08:31.870Z,2.90
2019-04-22T12:11:04.358Z,2.90
2019-04-22T12:13:33.887Z,2.60
2019-04-22T12:16:05.213Z,3.17
2019-04-22T12:18:35.397Z,2.80
2019-04-22T12:21:05.432Z,2.53
2019-04-22T12:23:35.268Z,2.53
2019-04-22T12:26:10.858Z,2.50
2019-04-22T12:28:37.061Z,3.43
2019-04-22T12:31:06.447Z,3.20
2019-04-22T12:33:37.132Z,2.67
2019-04-22T12:36:10.804Z,2.60
2019-04-22T12:38:41.815Z,2.40
2019-04-22T12:41:12.212Z,2.53
2019-04-22T12:43:43.110Z,2.97
2019-04-22T12:46:12.615Z,2.50
2019-04-22T12:48:43.242Z,2.50
2019-04-22T12:51:13.271Z,2.53
2019-04-22T12:53:44.533Z,2.37
2019-04-22T12:56:15.412Z,2.27
2019-04-22T12:58:45.852Z,2.90
2019-04-22T13:01:16.915Z,2.90
2019-04-22T13:03:46.559Z,2.80
2019-04-22T13:06:17.333Z,2.47
2019-04-22T13:08:47.679Z,2.73
2019-04-22T13:11:21.353Z,2.40
2019-04-22T13:13:49.324Z,2.40
2019-04-22T13:16:20.602Z,2.87
2019-04-22T13:18:58.710Z,2.40
2019-04-22T13:21:22.763Z,2.67
2019-04-22T13:23:53.096Z,2.43
2019-04-22T13:26:23.164Z,2.30
2019-04-22T13:28:52.691Z,2.30
2019-04-22T13:31:22.794Z,2.73
2019-04-22T13:33:55.254Z,2.60
2019-04-22T13:36:25.571Z,3.70
2019-04-22T13:38:55.230Z,2.90
2019-04-22T13:41:33.935Z,2.43
2019-04-22T13:43:57.627Z,2.40
2019-04-22T13:46:31.282Z,2.37
2019-04-22T13:54:01.901Z,2.37
2019-04-22T13:56:55.519Z,2.77
2019-04-22T13:59:18.433Z,4.70
2019-04-22T14:02:00.802Z,2.53
2019-04-22T14:04:34.698Z,3.00
2019-04-22T14:07:05.151Z,2.50
2019-04-22T14:09:35.990Z,3.43
2019-04-22T14:12:07.629Z,2.70
2019-04-22T14:14:39.182Z,2.80
2019-04-22T14:17:09.112Z,2.60
2019-04-22T14:19:39.132Z,3.23
2019-04-22T14:22:09.618Z,2.83
2019-04-22T14:24:40.650Z,2.63
2019-04-22T14:27:22.338Z,2.70
2019-04-22T14:29:41.959Z,3.00
2019-04-22T14:34:42.823Z,2.90
2019-04-22T14:37:12.244Z,2.80
2019-04-22T14:39:42.228Z,2.90
2019-04-22T14:42:28.470Z,3.63
2019-04-22T14:44:12.632Z,2.70
2019-04-22T14:45:18.961Z,2.60
2019-04-22T14:47:43.045Z,2.50
2019-04-22T14:50:06.291Z,2.70
2019-04-22T14:52:41.193Z,2.50
2019-04-22T14:55:00.891Z,2.30
2019-04-22T14:57:19.230Z,2.80
2019-04-22T14:59:57.831Z,3.47
2019-04-22T15:02:27.896Z,2.58
2019-04-22T15:04:58.383Z,2.77
2019-04-22T15:07:28.785Z,2.30
2019-04-22T15:09:59.856Z,2.20
2019-04-22T15:12:36.730Z,2.40
2019-04-22T15:15:13.509Z,2.27
2019-04-22T15:17:58.744Z,2.35
2019-04-22T15:20:45.961Z,3.98
2019-04-22T15:23:16.762Z,2.30
2019-04-22T15:25:46.704Z,2.47
2019-04-22T15:28:17.556Z,2.25
2019-04-22T15:30:47.796Z,2.27
2019-04-22T15:33:19.303Z,2.47
2019-04-22T15:35:49.450Z,2.20
2019-04-22T15:38:22.788Z,2.10
2019-04-22T15:40:52.336Z,2.50
2019-04-22T15:43:22.767Z,2.30
2019-04-22T15:45:53.001Z,4.40
2019-04-22T15:48:23.229Z,2.73
2019-04-22T15:50:52.978Z,2.13
2019-04-22T15:53:22.636Z,2.20
2019-04-22T15:55:52.431Z,1.87
2019-04-22T15:58:22.013Z,2.50
2019-04-22T16:01:01.827Z,2.90
2019-04-22T16:03:22.850Z,1.90
2019-04-22T16:05:52.395Z,2.17
2019-04-22T16:08:21.819Z,2.23
2019-04-22T16:10:51.721Z,2.20
2019-04-22T16:13:25.505Z,2.23
2019-04-22T16:15:54.270Z,4.07
2019-04-22T16:18:24.362Z,3.17
2019-04-22T16:20:54.352Z,2.50
2019-04-22T16:23:29.746Z,2.20
2019-04-22T16:26:09.412Z,2.60
2019-04-22T16:28:39.685Z,2.30
2019-04-22T16:31:09.401Z,2.10
2019-04-22T16:33:41.771Z,2.20
2019-04-22T16:36:11.061Z,2.23
2019-04-22T16:38:40.797Z,2.37
2019-04-22T16:41:10.858Z,2.53
2019-04-22T16:43:40.754Z,2.60
2019-04-22T16:46:11.604Z,2.50
2019-04-22T16:48:41.130Z,4.13
2019-04-22T16:51:11.801Z,2.40
2019-04-22T16:53:41.219Z,2.83
2019-04-22T16:56:11.037Z,2.77
2019-04-22T16:58:41.045Z,3.80
2019-04-22T17:01:30.533Z,2.40
2019-04-22T17:04:06.816Z,2.67
2019-04-22T17:06:39.470Z,2.63
2019-04-22T17:09:10.960Z,3.27
2019-04-22T17:11:40.368Z,3.30
2019-04-22T17:14:11.305Z,2.43
2019-04-22T17:16:42.074Z,2.23
2019-04-22T17:19:12.867Z,2.60
2019-04-22T17:21:43.673Z,3.90
2019-04-22T17:24:13.999Z,2.90
2019-04-22T17:26:44.229Z,2.23
2019-04-22T17:29:14.484Z,3.13
2019-04-22T17:31:50.921Z,3.73
2019-04-22T17:34:15.797Z,2.37
2019-04-22T17:36:46.247Z,2.43
2019-04-22T17:39:30.628Z,1.80
2019-04-22T17:42:02.384Z,1.90
2019-04-22T17:44:53.215Z,2.30
2019-04-22T17:47:35.842Z,2.10
2019-04-22T17:50:14.615Z,1.97
2019-04-22T17:52:42.589Z,2.30
2019-04-22T17:55:12.829Z,2.00
2019-04-22T17:57:45.229Z,2.23
2019-04-22T18:00:14.385Z,2.37
2019-04-22T18:02:45.650Z,2.50
2019-04-22T18:05:04.248Z,2.20
2019-04-22T18:07:48.868Z,2.30
2019-04-22T18:10:36.089Z,2.70
2019-04-22T18:12:59.938Z,2.47
2019-04-22T18:15:27.337Z,2.23
2019-04-22T18:18:00.996Z,2.37
2019-04-22T18:20:25.416Z,2.20
2019-04-22T18:22:52.197Z,2.13
2019-04-22T18:25:22.347Z,2.53
2019-04-22T18:28:15.079Z,2.73
2019-04-22T18:30:25.468Z,2.20
2019-04-22T18:33:08.671Z,2.60
2019-04-22T18:35:38.030Z,2.33
2019-04-22T18:38:15.427Z,2.20
2019-04-22T18:40:38.490Z,2.07
2019-04-22T18:43:10.261Z,2.10
2019-04-22T18:45:52.727Z,2.37
2019-04-22T18:48:06.504Z,2.20
2019-04-22T18:51:00.216Z,2.37
2019-04-22T18:53:50.851Z,2.20
2019-04-22T18:56:20.591Z,2.40
2019-04-22T18:58:40.223Z,2.10
2019-04-22T19:00:59.657Z,2.10
2019-04-22T19:03:32.200Z,1.77
2019-04-22T19:06:30.564Z,2.20
2019-04-22T19:08:55.505Z,2.40
2019-04-22T19:11:20.562Z,2.20
2019-04-22T19:14:02.316Z,1.90
2019-04-22T19:16:38.252Z,1.97
2019-04-22T19:19:29.781Z,1.70
2019-04-22T19:21:48.000Z,1.87
2019-04-22T19:24:17.274Z,2.10
2019-04-22T19:26:55.969Z,2.13
2019-04-22T19:29:25.929Z,5.07
2019-04-22T19:31:56.465Z,7.90
2019-04-22T19:34:25.530Z,3.33
2019-04-22T19:36:56.200Z,2.90
2019-04-22T19:39:27.296Z,2.53
2019-04-22T19:42:12.456Z,2.57
2019-04-22T19:44:36.281Z,3.07
2019-04-22T19:47:21.184Z,2.20
2019-04-22T19:49:38.459Z,3.53
2019-04-22T19:52:11.314Z,2.60
2019-04-22T19:54:38.743Z,3.67
2019-04-22T19:57:03.219Z,2.70
2019-04-22T19:59:45.316Z,2.90
2019-04-22T20:02:57.490Z,2.57
2019-04-22T20:05:45.170Z,3.17
2019-04-22T20:08:14.656Z,2.30
2019-04-22T20:10:45.917Z,2.53
2019-04-22T20:13:20.709Z,7.30
2019-04-22T20:15:42.792Z,2.10
2019-04-22T20:18:33.366Z,5.07
2019-04-22T20:20:54.045Z,3.60
2019-04-22T20:23:14.400Z,3.20
2019-04-22T20:25:49.691Z,2.40
2019-04-22T20:28:27.355Z,2.53
2019-04-22T20:30:55.479Z,2.33
2019-04-22T20:33:29.247Z,2.93
2019-04-22T20:35:58.640Z,2.80
2019-04-22T20:38:27.703Z,2.50
2019-04-22T20:40:55.024Z,2.60
2019-04-22T20:43:38.585Z,2.30
2019-04-22T20:46:05.952Z,2.30
2019-04-22T20:48:30.647Z,2.30
2019-04-22T20:51:04.057Z,2.33
2019-04-22T20:53:47.973Z,3.03
2019-04-22T20:56:15.741Z,2.50
2019-04-22T20:58:48.055Z,2.80
2019-04-22T21:01:10.393Z,2.83
2019-04-22T21:03:39.225Z,2.53
2019-04-22T21:06:14.902Z,2.97
2019-04-22T21:08:56.556Z,3.07
2019-04-22T21:11:19.433Z,2.93
2019-04-22T21:13:53.179Z,2.40
2019-04-22T21:16:32.919Z,2.10
2019-04-22T21:19:02.801Z,2.07
2019-04-22T21:21:37.739Z,2.40
2019-04-22T21:23:56.931Z,2.43
2019-04-22T21:26:33.586Z,2.20
2019-04-22T21:29:04.358Z,2.10
2019-04-22T21:31:38.635Z,2.10
2019-04-22T21:34:08.010Z,2.20
2019-04-22T21:36:41.624Z,2.17
2019-04-22T21:39:06.855Z,2.87
2019-04-22T21:41:44.564Z,2.30
2019-04-22T21:44:14.331Z,2.47
2019-04-22T21:46:53.768Z,2.33
2019-04-22T21:49:21.408Z,3.03
2019-04-22T21:51:49.344Z,2.67
2019-04-22T21:54:21.536Z,2.70
2019-04-22T21:57:07.544Z,2.20
2019-04-22T21:59:29.888Z,2.77
2019-04-22T22:02:11.833Z,2.30
2019-04-22T22:04:30.374Z,2.30
2019-04-22T22:06:55.601Z,2.50
2019-04-22T22:09:37.938Z,2.20
2019-04-22T22:12:02.411Z,2.50
2019-04-22T22:14:42.563Z,2.60
2019-04-22T22:17:07.655Z,2.80
2019-04-22T22:19:43.862Z,2.80
2019-04-22T22:22:30.159Z,2.60
2019-04-22T22:24:43.896Z,2.73
2019-04-22T22:27:22.088Z,2.97
2019-04-22T22:29:59.214Z,2.70
2019-04-22T22:32:16.779Z,2.97
2019-04-22T22:34:50.804Z,2.97
2019-04-22T22:37:12.114Z,2.90
2019-04-22T22:39:39.166Z,3.03
2019-04-22T22:42:01.914Z,2.87
2019-04-22T22:44:38.041Z,3.07
2019-04-22T22:47:20.369Z,3.10
2019-04-22T22:50:01.168Z,3.73
2019-04-22T22:52:45.069Z,3.53
2019-04-22T22:54:57.600Z,3.10
2019-04-22T22:57:33.825Z,3.57
2019-04-22T22:59:55.173Z,3.20
2019-04-22T23:02:28.084Z,3.40
2019-04-22T23:05:05.781Z,3.77
2019-04-22T23:07:37.531Z,3.70
2019-04-22T23:10:01.638Z,3.70
2019-04-22T23:12:46.552Z,3.60
2019-04-22T23:15:06.310Z,4.20
2019-04-22T23:17:22.474Z,4.20
2019-04-22T23:19:52.110Z,4.37
2019-04-22T23:22:30.023Z,4.20
2019-04-22T23:25:17.319Z,4.63
2019-04-22T23:27:56.908Z,4.37
2019-04-22T23:30:46.371Z,4.83
2019-04-22T23:33:26.485Z,4.70
2019-04-22T23:36:23.628Z,4.87
2019-04-22T23:39:09.790Z,4.33
2019-04-22T23:44:13.528Z,4.80
2019-04-22T23:46:42.627Z,5.27
2019-04-22T23:49:15.516Z,4.97
2019-04-22T23:51:55.173Z,5.33
2019-04-22T23:54:23.999Z,5.30
2019-04-22T23:56:46.961Z,5.30
2019-04-22T23:59:38.309Z,5.57
